createdAt,value
2023-12-24T00:01:45.467Z,-8.71
2023-12-24T00:04:31.911Z,-8.75
2023-12-24T00:07:18.514Z,-8.78
2023-12-24T00:10:05.692Z,-8.82
2023-12-24T00:12:52.409Z,-8.84
2023-12-24T00:15:39.407Z,-8.84
2023-12-24T00:18:26.030Z,-8.80
2023-12-24T00:21:15.673Z,-8.74
2023-12-24T00:24:01.988Z,-8.73
2023-12-24T00:26:48.222Z,-8.71
2023-12-24T00:29:34.708Z,-8.68
2023-12-24T00:32:21.406Z,-8.66
2023-12-24T00:35:08.083Z,-8.62
2023-12-24T00:37:57.554Z,-8.60
2023-12-24T00:40:44.008Z,-8.56
2023-12-24T00:43:30.766Z,-8.59
2023-12-24T00:46:17.529Z,-8.57
2023-12-24T00:49:04.055Z,-8.56
2023-12-24T00:51:51.593Z,-8.61
2023-12-24T00:54:38.100Z,-8.60
2023-12-24T00:57:25.944Z,-8.52
2023-12-24T01:00:13.049Z,-8.46
2023-12-24T01:02:59.593Z,-8.44
2023-12-24T01:05:45.996Z,-8.40
2023-12-24T01:08:32.445Z,-8.40
2023-12-24T01:11:19.034Z,-8.36
2023-12-24T01:14:05.215Z,-8.37
2023-12-24T01:16:51.533Z,-8.35
2023-12-24T01:19:37.517Z,-8.32
2023-12-24T01:22:23.681Z,-8.33
2023-12-24T01:25:12.988Z,-8.29
2023-12-24T01:27:59.247Z,-8.21
2023-12-24T01:30:45.507Z,-8.17
2023-12-24T01:33:32.154Z,-8.13
2023-12-24T01:36:18.619Z,-8.16
2023-12-24T01:39:04.808Z,-8.20
2023-12-24T01:41:50.685Z,-8.32
2023-12-24T01:44:36.862Z,-8.33
2023-12-24T01:47:23.767Z,-8.37
2023-12-24T01:50:11.188Z,-8.32
2023-12-24T01:52:57.376Z,-8.30
2023-12-24T01:55:44.371Z,-8.39
2023-12-24T01:58:30.832Z,-8.44
2023-12-24T02:01:17.278Z,-8.47
2023-12-24T02:04:03.892Z,-8.47
2023-12-24T02:06:52.100Z,-8.47
2023-12-24T02:09:39.452Z,-8.51
2023-12-24T02:12:25.710Z,-8.50
2023-12-24T02:15:12.161Z,-8.43
2023-12-24T02:18:00.610Z,-8.37
2023-12-24T02:20:48.492Z,-8.34
2023-12-24T02:23:35.205Z,-8.36
2023-12-24T02:26:32.246Z,-8.36
2023-12-24T02:29:27.649Z,-8.34
2023-12-24T02:32:16.536Z,-8.33
2023-12-24T02:35:04.335Z,-8.32
2023-12-24T02:37:50.999Z,-8.33
2023-12-24T02:40:37.286Z,-8.37
2023-12-24T02:43:23.356Z,-8.38
2023-12-24T02:46:09.610Z,-8.35
2023-12-24T02:48:55.700Z,-8.31
2023-12-24T02:51:42.170Z,-8.28
2023-12-24T02:54:28.148Z,-8.31
2023-12-24T02:57:14.014Z,-8.36
2023-12-24T03:00:00.421Z,-8.43
2023-12-24T03:02:47.469Z,-8.53
2023-12-24T03:05:33.960Z,-8.55
2023-12-24T03:08:20.329Z,-8.56
2023-12-24T03:11:06.891Z,-8.56
2023-12-24T03:13:53.416Z,-8.51
2023-12-24T03:16:39.815Z,-8.58
2023-12-24T03:19:26.110Z,-8.62
2023-12-24T03:22:12.517Z,-8.59
2023-12-24T03:24:58.666Z,-8.60
2023-12-24T03:27:44.846Z,-8.67
2023-12-24T03:30:31.274Z,-8.73
2023-12-24T03:33:17.519Z,-8.70
2023-12-24T03:36:04.020Z,-8.71
2023-12-24T03:38:50.332Z,-8.69
2023-12-24T03:41:36.392Z,-8.63
2023-12-24T03:44:22.705Z,-8.64
2023-12-24T03:47:08.711Z,-8.62
2023-12-24T03:49:54.576Z,-8.65
2023-12-24T03:52:41.238Z,-8.69
2023-12-24T03:55:27.270Z,-8.70
2023-12-24T03:58:14.013Z,-8.64
2023-12-24T04:01:00.552Z,-8.60
2023-12-24T04:03:47.931Z,-8.50
2023-12-24T04:06:34.262Z,-8.42
2023-12-24T04:09:20.978Z,-8.37
2023-12-24T04:12:07.327Z,-8.31
2023-12-24T04:14:53.558Z,-8.27
2023-12-24T04:17:39.775Z,-8.29
2023-12-24T04:20:25.842Z,-8.26
2023-12-24T04:23:12.746Z,-8.26
2023-12-24T04:25:58.874Z,-8.26
2023-12-24T04:28:45.386Z,-8.33
2023-12-24T04:31:31.904Z,-8.37
2023-12-24T04:34:18.119Z,-8.39
2023-12-24T04:37:04.542Z,-8.35
2023-12-24T04:39:50.887Z,-8.28
2023-12-24T04:42:37.172Z,-8.24
2023-12-24T04:45:23.233Z,-8.24
2023-12-24T04:48:09.286Z,-8.29
2023-12-24T04:50:55.393Z,-8.29
2023-12-24T04:53:42.011Z,-8.27
2023-12-24T04:56:30.405Z,-8.31
2023-12-24T04:59:16.884Z,-8.35
2023-12-24T05:02:03.924Z,-8.39
2023-12-24T05:04:50.781Z,-8.42
2023-12-24T05:07:37.081Z,-8.43
2023-12-24T05:10:22.966Z,-8.40
2023-12-24T05:13:11.952Z,-8.48
2023-12-24T05:15:58.084Z,-8.48
2023-12-24T05:18:44.058Z,-8.44
2023-12-24T05:21:30.990Z,-8.43
2023-12-24T05:24:17.686Z,-8.42
2023-12-24T05:27:04.102Z,-8.43
2023-12-24T05:29:50.039Z,-8.42
2023-12-24T05:32:36.235Z,-8.45
2023-12-24T05:35:22.494Z,-8.44
2023-12-24T05:38:08.614Z,-8.41
2023-12-24T05:40:55.444Z,-8.38
2023-12-24T05:43:41.953Z,-8.40
2023-12-24T05:46:28.300Z,-8.41
2023-12-24T05:49:14.263Z,-8.48
2023-12-24T05:52:00.740Z,-8.55
2023-12-24T05:54:47.065Z,-8.58
2023-12-24T05:57:32.983Z,-8.66
2023-12-24T06:00:19.157Z,-8.68
2023-12-24T06:03:05.678Z,-8.67
2023-12-24T06:05:52.140Z,-8.64
2023-12-24T06:08:39.681Z,-8.60
2023-12-24T06:11:26.346Z,-8.69
2023-12-24T06:14:12.789Z,-8.71
2023-12-24T06:16:59.505Z,-8.68
2023-12-24T06:19:46.097Z,-8.66
2023-12-24T06:22:32.486Z,-8.62
2023-12-24T06:25:20.438Z,-8.57
2023-12-24T06:28:06.775Z,-8.52
2023-12-24T06:30:52.763Z,-8.46
2023-12-24T06:33:38.827Z,-8.38
2023-12-24T06:36:25.290Z,-8.33
2023-12-24T06:39:13.035Z,-8.32
2023-12-24T06:41:59.356Z,-8.32
2023-12-24T06:44:45.426Z,-8.35
2023-12-24T06:47:32.052Z,-8.40
2023-12-24T06:50:19.090Z,-8.44
2023-12-24T06:53:07.056Z,-8.44
2023-12-24T06:55:53.150Z,-8.41
2023-12-24T06:58:39.405Z,-8.42
2023-12-24T07:01:25.376Z,-8.48
2023-12-24T07:04:11.598Z,-8.45
2023-12-24T07:06:57.840Z,-8.39
2023-12-24T07:09:43.762Z,-8.35
2023-12-24T07:12:31.327Z,-8.32
2023-12-24T07:15:17.748Z,-8.30
2023-12-24T07:18:04.109Z,-8.25
2023-12-24T07:20:50.689Z,-8.28
2023-12-24T07:23:38.920Z,-8.26
2023-12-24T07:26:25.184Z,-8.21
2023-12-24T07:29:11.074Z,-8.15
2023-12-24T07:31:57.019Z,-8.20
2023-12-24T07:34:43.132Z,-8.21
2023-12-24T07:37:29.012Z,-8.22
2023-12-24T07:40:15.311Z,-8.23
2023-12-24T07:43:02.695Z,-8.22
2023-12-24T07:45:48.908Z,-8.21
2023-12-24T07:48:34.987Z,-8.20
2023-12-24T07:51:21.432Z,-8.20
2023-12-24T07:54:07.320Z,-8.25
2023-12-24T07:56:53.302Z,-8.32
2023-12-24T07:59:39.324Z,-8.31
2023-12-24T08:02:26.038Z,-8.26
2023-12-24T08:05:12.552Z,-8.27
2023-12-24T08:07:59.068Z,-8.26
2023-12-24T08:10:45.004Z,-8.27
2023-12-24T08:13:31.045Z,-8.39
2023-12-24T08:16:17.044Z,-8.43
2023-12-24T08:19:03.971Z,-8.37
2023-12-24T08:21:50.268Z,-8.33
2023-12-24T08:24:36.437Z,-8.28
2023-12-24T08:27:22.804Z,-8.19
2023-12-24T08:30:09.823Z,-8.07
2023-12-24T08:32:56.464Z,-8.01
2023-12-24T08:35:43.195Z,-7.94
2023-12-24T08:38:29.617Z,-7.90
2023-12-24T08:41:15.659Z,-7.88
2023-12-24T08:44:01.710Z,-7.89
2023-12-24T08:46:49.923Z,-8.01
2023-12-24T08:49:36.034Z,-8.12
2023-12-24T08:52:22.668Z,-8.18
2023-12-24T08:55:09.310Z,-8.27
2023-12-24T08:57:55.517Z,-8.31
2023-12-24T09:00:41.612Z,-8.30
2023-12-24T09:03:27.689Z,-8.31
2023-12-24T09:06:14.450Z,-8.24
2023-12-24T09:09:00.764Z,-8.07
2023-12-24T09:11:48.615Z,-7.90
2023-12-24T09:14:34.567Z,-7.79
2023-12-24T09:17:21.315Z,-7.73
2023-12-24T09:20:08.693Z,-7.70
2023-12-24T09:22:55.163Z,-7.75
2023-12-24T09:25:41.498Z,-7.87
2023-12-24T09:28:27.513Z,-7.98
2023-12-24T09:31:13.613Z,-8.14
2023-12-24T09:34:00.896Z,-8.29
2023-12-24T09:36:47.125Z,-8.36
2023-12-24T09:39:34.238Z,-8.38
2023-12-24T09:42:20.688Z,-8.43
2023-12-24T09:45:06.976Z,-8.42
2023-12-24T09:47:53.227Z,-8.41
2023-12-24T09:50:39.525Z,-8.35
2023-12-24T09:53:25.671Z,-8.29
2023-12-24T09:56:12.057Z,-8.25
2023-12-24T09:59:01.499Z,-8.21
2023-12-24T10:01:49.903Z,-8.18
2023-12-24T10:04:35.900Z,-8.12
2023-12-24T10:07:21.877Z,-8.06
2023-12-24T10:10:12.436Z,-7.97
2023-12-24T10:13:06.608Z,-7.90
2023-12-24T10:16:04.085Z,-7.80
2023-12-24T10:18:51.776Z,-7.73
2023-12-24T10:21:38.376Z,-7.72
2023-12-24T10:24:24.124Z,-7.75
2023-12-24T10:27:11.904Z,-7.80
2023-12-24T10:30:15.398Z,-7.82
2023-12-24T10:33:12.897Z,-7.84
2023-12-24T10:35:59.440Z,-7.86
2023-12-24T10:38:45.526Z,-7.80
2023-12-24T10:41:31.606Z,-7.74
2023-12-24T10:44:18.572Z,-7.78
2023-12-24T10:47:05.310Z,-7.90
2023-12-24T10:49:53.257Z,-7.99
2023-12-24T10:52:39.461Z,-8.01
2023-12-24T10:55:26.358Z,-8.07
2023-12-24T10:58:19.528Z,-8.13
2023-12-24T11:01:10.578Z,-8.22
2023-12-24T11:03:58.048Z,-8.26
2023-12-24T11:06:44.594Z,-8.24
2023-12-24T11:09:33.409Z,-8.27
2023-12-24T11:12:37.753Z,-8.29
2023-12-24T11:15:40.920Z,-8.23
2023-12-24T11:18:48.406Z,-8.22
2023-12-24T11:22:13.871Z,-8.32
2023-12-24T11:25:17.794Z,-8.36
2023-12-24T11:28:09.185Z,-8.36
2023-12-24T11:30:55.179Z,-8.28
2023-12-24T11:33:48.159Z,-8.24
2023-12-24T11:36:34.423Z,-8.30
2023-12-24T11:39:20.588Z,-8.27
2023-12-24T11:42:07.293Z,-8.21
2023-12-24T11:44:57.382Z,-8.25
2023-12-24T11:47:44.354Z,-8.29
2023-12-24T11:50:30.920Z,-8.31
2023-12-24T11:53:20.768Z,-8.33
2023-12-24T11:56:13.008Z,-8.32
2023-12-24T11:59:00.312Z,-8.29
2023-12-24T12:01:46.382Z,-8.34
2023-12-24T12:04:32.356Z,-8.36
2023-12-24T12:07:18.188Z,-8.34
2023-12-24T12:10:05.206Z,-8.34
2023-12-24T12:12:51.997Z,-8.38
2023-12-24T12:15:38.229Z,-8.39
2023-12-24T12:18:24.442Z,-8.44
2023-12-24T12:21:13.764Z,-8.38
2023-12-24T12:23:59.957Z,-8.29
2023-12-24T12:26:46.444Z,-8.15
2023-12-24T12:29:33.102Z,-8.04
2023-12-24T12:32:19.414Z,-8.03
2023-12-24T12:35:05.859Z,-8.12
2023-12-24T12:37:52.485Z,-8.20
2023-12-24T12:40:44.223Z,-8.23
2023-12-24T12:43:36.301Z,-8.22
2023-12-24T12:46:23.092Z,-8.24
2023-12-24T12:49:09.821Z,-8.22
2023-12-24T12:51:56.276Z,-8.24
2023-12-24T12:54:42.465Z,-8.31
2023-12-24T12:57:30.484Z,-8.35
2023-12-24T13:00:22.098Z,-8.37
2023-12-24T13:03:09.535Z,-8.37
2023-12-24T13:05:58.296Z,-8.39
2023-12-24T13:08:44.750Z,-8.40
2023-12-24T13:11:31.349Z,-8.40
2023-12-24T13:14:20.646Z,-8.45
2023-12-24T13:17:11.129Z,-8.47
2023-12-24T13:19:57.264Z,-8.45
2023-12-24T13:22:43.992Z,-8.46
2023-12-24T13:25:32.069Z,-8.48
2023-12-24T13:28:19.119Z,-8.47
2023-12-24T13:31:05.258Z,-8.46
2023-12-24T13:33:51.506Z,-8.42
2023-12-24T13:36:37.957Z,-8.36
2023-12-24T13:39:23.877Z,-8.38
2023-12-24T13:42:09.964Z,-8.43
2023-12-24T13:44:56.351Z,-8.47
2023-12-24T13:47:42.680Z,-8.52
2023-12-24T13:50:29.135Z,-8.53
2023-12-24T13:53:24.614Z,-8.52
2023-12-24T13:56:17.925Z,-8.47
2023-12-24T13:59:06.862Z,-8.46
2023-12-24T14:01:53.685Z,-8.49
2023-12-24T14:04:39.928Z,-8.56
2023-12-24T14:07:31.406Z,-8.60
2023-12-24T14:10:18.989Z,-8.62
2023-12-24T14:13:05.403Z,-8.63
2023-12-24T14:15:51.487Z,-8.63
2023-12-24T14:18:37.736Z,-8.65
2023-12-24T14:21:24.129Z,-8.71
2023-12-24T14:24:10.572Z,-8.76
2023-12-24T14:26:56.562Z,-8.79
2023-12-24T14:29:42.671Z,-8.77
2023-12-24T14:32:29.943Z,-8.74
2023-12-24T14:35:16.336Z,-8.72
2023-12-24T14:38:02.585Z,-8.70
2023-12-24T14:40:49.098Z,-8.68
2023-12-24T14:43:35.417Z,-8.64
2023-12-24T14:46:21.400Z,-8.64
2023-12-24T14:49:07.577Z,-8.61
2023-12-24T14:51:53.695Z,-8.60
2023-12-24T14:54:40.229Z,-8.57
2023-12-24T14:57:27.601Z,-8.57
2023-12-24T15:00:14.335Z,-8.57
2023-12-24T15:03:00.738Z,-8.58
2023-12-24T15:05:47.032Z,-8.58
2023-12-24T15:08:33.363Z,-8.53
2023-12-24T15:11:20.908Z,-8.49
2023-12-24T15:14:09.202Z,-8.49
2023-12-24T15:16:55.337Z,-8.47
2023-12-24T15:19:41.305Z,-8.48
2023-12-24T15:22:28.625Z,-8.50
2023-12-24T15:25:14.529Z,-8.54
2023-12-24T15:28:00.685Z,-8.53
2023-12-24T15:30:51.606Z,-8.53
2023-12-24T15:33:38.274Z,-8.49
2023-12-24T15:36:24.358Z,-8.48
2023-12-24T15:39:10.407Z,-8.43
2023-12-24T15:41:58.318Z,-8.43
2023-12-24T15:44:44.938Z,-8.44
2023-12-24T15:47:32.239Z,-8.45
2023-12-24T15:50:19.269Z,-8.48
2023-12-24T15:53:05.735Z,-8.40
2023-12-24T15:55:51.707Z,-8.31
2023-12-24T15:58:37.733Z,-8.25
2023-12-24T16:01:23.721Z,-8.21
2023-12-24T16:04:10.387Z,-8.19
2023-12-24T16:06:56.754Z,-8.16
2023-12-24T16:09:42.756Z,-8.17
2023-12-24T16:12:28.755Z,-8.25
2023-12-24T16:15:16.076Z,-8.25
2023-12-24T16:18:02.749Z,-8.17
2023-12-24T16:20:49.175Z,-8.10
2023-12-24T16:23:35.749Z,-8.10
2023-12-24T16:26:22.248Z,-8.15
2023-12-24T16:29:08.614Z,-8.21
2023-12-24T16:31:54.573Z,-8.24
2023-12-24T16:34:40.596Z,-8.25
2023-12-24T16:37:26.651Z,-8.28
2023-12-24T16:40:12.938Z,-8.29
2023-12-24T16:42:59.301Z,-8.34
2023-12-24T16:45:45.771Z,-8.34
2023-12-24T16:48:32.469Z,-8.31
2023-12-24T16:51:20.167Z,-8.27
2023-12-24T16:54:06.825Z,-8.24
2023-12-24T16:56:53.054Z,-8.22
2023-12-24T16:59:39.825Z,-8.20
2023-12-24T17:02:28.222Z,-8.21
2023-12-24T17:05:14.769Z,-8.23
2023-12-24T17:11:17.006Z,-8.30
2023-12-24T17:14:03.570Z,-8.34
2023-12-24T17:16:50.221Z,-8.35
2023-12-24T17:19:36.307Z,-8.38
2023-12-24T17:22:22.815Z,-8.41
2023-12-24T17:25:09.032Z,-8.45
2023-12-24T17:27:55.334Z,-8.49
2023-12-24T17:30:41.919Z,-8.50
2023-12-24T17:33:28.279Z,-8.42
2023-12-24T17:36:18.814Z,-8.43
2023-12-24T17:39:05.679Z,-8.39
2023-12-24T17:41:52.348Z,-8.38
2023-12-24T17:44:38.958Z,-8.41
2023-12-24T17:47:26.344Z,-8.39
2023-12-24T17:50:12.933Z,-8.41
2023-12-24T17:52:59.403Z,-8.47
2023-12-24T17:55:45.656Z,-8.49
2023-12-24T17:58:31.665Z,-8.50
2023-12-24T18:01:17.609Z,-8.50
2023-12-24T18:04:04.615Z,-8.48
2023-12-24T18:06:50.976Z,-8.43
2023-12-24T18:09:37.336Z,-8.42
2023-12-24T18:12:23.949Z,-8.39
2023-12-24T18:15:10.234Z,-8.44
2023-12-24T18:17:56.366Z,-8.50
2023-12-24T18:20:42.520Z,-8.53
2023-12-24T18:23:29.055Z,-8.51
2023-12-24T18:26:16.578Z,-8.53
2023-12-24T18:29:04.539Z,-8.51
2023-12-24T18:31:50.700Z,-8.49
2023-12-24T18:34:36.747Z,-8.44
2023-12-24T18:37:24.047Z,-8.38
2023-12-24T18:40:11.000Z,-8.35
2023-12-24T18:42:57.140Z,-8.31
2023-12-24T18:45:43.532Z,-8.22
2023-12-24T18:48:29.739Z,-8.13
2023-12-24T18:51:22.059Z,-8.06
2023-12-24T18:54:08.382Z,-8.02
2023-12-24T18:56:54.362Z,-8.00
2023-12-24T18:59:40.926Z,-7.98
2023-12-24T19:02:27.106Z,-8.00
2023-12-24T19:05:14.911Z,-8.03
2023-12-24T19:08:01.264Z,-8.01
2023-12-24T19:10:47.680Z,-7.97
2023-12-24T19:13:33.801Z,-7.94
2023-12-24T19:16:19.759Z,-7.91
2023-12-24T19:19:06.337Z,-7.89
2023-12-24T19:21:53.047Z,-7.89
2023-12-24T19:24:39.337Z,-7.88
2023-12-24T19:27:25.453Z,-7.85
2023-12-24T19:30:12.023Z,-7.81
2023-12-24T19:32:58.579Z,-7.81
2023-12-24T19:35:45.181Z,-7.82
2023-12-24T19:38:31.344Z,-7.85
2023-12-24T19:41:18.739Z,-7.91
2023-12-24T19:44:04.784Z,-7.97
2023-12-24T19:46:51.169Z,-7.99
2023-12-24T19:49:38.317Z,-7.99
2023-12-24T19:52:35.707Z,-7.97
2023-12-24T19:55:26.045Z,-7.94
2023-12-24T19:58:12.557Z,-7.97
2023-12-24T20:00:58.892Z,-7.95
2023-12-24T20:03:44.983Z,-7.93
2023-12-24T20:06:31.009Z,-7.93
2023-12-24T20:09:17.101Z,-7.91
2023-12-24T20:12:03.872Z,-7.92
2023-12-24T20:14:50.227Z,-7.94
2023-12-24T20:17:37.062Z,-7.94
2023-12-24T20:20:23.650Z,-7.95
2023-12-24T20:23:10.435Z,-7.93
2023-12-24T20:25:56.787Z,-7.95
2023-12-24T20:28:42.733Z,-8.00
2023-12-24T20:31:28.616Z,-8.04
2023-12-24T20:34:15.314Z,-8.09
2023-12-24T20:37:01.421Z,-8.12
2023-12-24T20:39:47.570Z,-8.14
2023-12-24T20:42:33.565Z,-8.09
2023-12-24T20:45:19.628Z,-8.02
2023-12-24T20:48:06.024Z,-7.99
2023-12-24T20:50:52.426Z,-7.94
2023-12-24T20:53:38.791Z,-7.92
2023-12-24T20:56:25.013Z,-7.96
2023-12-24T20:59:11.186Z,-7.99
2023-12-24T21:01:57.104Z,-8.00
2023-12-24T21:04:44.158Z,-8.03
2023-12-24T21:07:30.360Z,-8.04
2023-12-24T21:10:16.688Z,-8.08
2023-12-24T21:13:03.183Z,-8.09
2023-12-24T21:15:49.170Z,-8.07
2023-12-24T21:18:35.409Z,-8.10
2023-12-24T21:21:22.223Z,-8.11
2023-12-24T21:24:08.859Z,-8.15
2023-12-24T21:26:55.259Z,-8.17
2023-12-24T21:29:41.407Z,-8.18
2023-12-24T21:32:28.019Z,-8.19
2023-12-24T21:35:14.487Z,-8.22
2023-12-24T21:38:01.444Z,-8.28
2023-12-24T21:40:47.479Z,-8.33
2023-12-24T21:43:36.296Z,-8.43
2023-12-24T21:46:22.949Z,-8.48
2023-12-24T21:49:09.644Z,-8.49
2023-12-24T21:51:55.973Z,-8.48
2023-12-24T21:54:42.555Z,-8.45
2023-12-24T21:57:28.880Z,-8.45
2023-12-24T22:00:15.344Z,-8.50
2023-12-24T22:03:01.426Z,-8.58
2023-12-24T22:05:47.913Z,-8.69
2023-12-24T22:08:34.682Z,-8.82
2023-12-24T22:11:21.924Z,-8.93
2023-12-24T22:14:08.628Z,-9.04
2023-12-24T22:16:54.928Z,-9.12
2023-12-24T22:19:41.988Z,-9.18
2023-12-24T22:22:28.515Z,-9.24
2023-12-24T22:25:15.120Z,-9.30
2023-12-24T22:28:01.972Z,-9.36
2023-12-24T22:30:48.371Z,-9.42
2023-12-24T22:33:35.137Z,-9.50
2023-12-24T22:36:21.393Z,-9.57
2023-12-24T22:39:07.634Z,-9.64
2023-12-24T22:41:54.290Z,-9.71
2023-12-24T22:44:43.464Z,-9.75
2023-12-24T22:47:30.112Z,-9.77
2023-12-24T22:50:16.572Z,-9.76
2023-12-24T22:53:04.074Z,-9.78
2023-12-24T22:55:51.113Z,-9.80
2023-12-24T22:58:40.474Z,-9.83
2023-12-24T23:01:26.461Z,-9.90
2023-12-24T23:04:12.690Z,-9.96
2023-12-24T23:06:58.834Z,-10.02
2023-12-24T23:09:44.920Z,-10.08
2023-12-24T23:12:30.911Z,-10.12
2023-12-24T23:15:16.903Z,-10.12
2023-12-24T23:18:04.181Z,-10.10
2023-12-24T23:20:50.568Z,-10.08
2023-12-24T23:23:37.211Z,-10.07
2023-12-24T23:26:23.807Z,-10.11
2023-12-24T23:29:09.825Z,-10.15
2023-12-24T23:31:55.726Z,-10.21
2023-12-24T23:34:41.830Z,-10.26
2023-12-24T23:37:29.509Z,-10.26
2023-12-24T23:40:15.848Z,-10.22
2023-12-24T23:43:02.425Z,-10.22
2023-12-24T23:45:48.395Z,-10.28
2023-12-24T23:48:34.592Z,-10.35
2023-12-24T23:51:21.072Z,-10.38
2023-12-24T23:54:07.481Z,-10.43
2023-12-24T23:56:53.717Z,-10.49
2023-12-24T23:59:41.464Z,-10.52
